createdAt,value
2019-03-15T00:02:19.428Z,1.90
2019-03-15T00:04:46.486Z,1.92
2019-03-15T00:07:15.951Z,1.22
2019-03-15T00:09:42.968Z,2.75
2019-03-15T00:12:09.986Z,1.47
2019-03-15T00:14:37.531Z,1.70
2019-03-15T00:17:04.575Z,1.00
2019-03-15T00:19:33.103Z,1.52
2019-03-15T00:21:59.759Z,1.55
2019-03-15T00:24:26.388Z,1.37
2019-03-15T00:26:53.435Z,1.47
2019-03-15T00:29:20.427Z,1.10
2019-03-15T00:31:47.793Z,1.90
2019-03-15T00:34:14.700Z,1.00
2019-03-15T00:36:42.279Z,0.90
2019-03-15T00:39:09.014Z,1.60
2019-03-15T00:41:36.280Z,1.62
2019-03-15T00:44:03.004Z,1.45
2019-03-15T00:46:29.648Z,1.45
2019-03-15T00:48:57.010Z,1.60
2019-03-15T00:51:25.282Z,1.55
2019-03-15T00:53:54.487Z,1.10
2019-03-15T00:56:22.807Z,1.17
2019-03-15T00:58:50.124Z,1.85
2019-03-15T01:01:18.124Z,1.98
2019-03-15T01:03:45.338Z,1.60
2019-03-15T01:06:12.422Z,2.17
2019-03-15T01:08:39.630Z,1.52
2019-03-15T01:11:07.126Z,1.30
2019-03-15T01:13:34.547Z,2.33
2019-03-15T01:16:01.605Z,1.72
2019-03-15T01:18:28.249Z,1.75
2019-03-15T01:20:55.898Z,1.57
2019-03-15T01:23:23.555Z,2.33
2019-03-15T01:25:51.522Z,1.47
2019-03-15T01:28:19.597Z,2.55
2019-03-15T01:30:46.595Z,3.67
2019-03-15T01:33:13.891Z,1.87
2019-03-15T01:35:40.836Z,2.30
2019-03-15T01:38:07.888Z,2.00
2019-03-15T01:40:35.298Z,2.27
2019-03-15T01:43:02.962Z,1.70
2019-03-15T01:45:29.951Z,1.92
2019-03-15T01:47:58.430Z,1.70
2019-03-15T01:50:25.074Z,1.60
2019-03-15T01:52:52.836Z,1.42
2019-03-15T01:55:20.595Z,3.37
2019-03-15T01:57:47.539Z,1.17
2019-03-15T02:00:14.166Z,1.87
2019-03-15T02:02:41.127Z,1.47
2019-03-15T02:05:08.787Z,1.37
2019-03-15T02:07:36.143Z,1.52
2019-03-15T02:10:03.596Z,2.20
2019-03-15T02:12:31.157Z,3.52
2019-03-15T02:14:57.785Z,1.40
2019-03-15T02:17:24.459Z,1.62
2019-03-15T02:19:53.219Z,1.75
2019-03-15T02:22:24.467Z,0.98
2019-03-15T02:24:55.582Z,0.90
2019-03-15T02:27:24.091Z,1.13
2019-03-15T02:29:50.855Z,1.70
2019-03-15T02:32:18.183Z,0.75
2019-03-15T02:34:45.206Z,1.40
2019-03-15T02:37:12.817Z,1.00
2019-03-15T02:39:40.253Z,1.25
2019-03-15T02:42:06.888Z,1.17
2019-03-15T02:44:35.268Z,1.40
2019-03-15T02:47:02.256Z,1.40
2019-03-15T02:49:29.299Z,1.20
2019-03-15T02:51:57.431Z,1.45
2019-03-15T02:54:24.375Z,1.70
2019-03-15T02:56:52.751Z,1.37
2019-03-15T02:59:21.014Z,1.33
2019-03-15T03:01:49.307Z,1.15
2019-03-15T03:04:16.864Z,1.17
2019-03-15T03:06:44.831Z,1.20
2019-03-15T03:09:11.779Z,0.98
2019-03-15T03:11:38.975Z,1.47
2019-03-15T03:14:06.215Z,0.95
2019-03-15T03:16:33.740Z,1.60
2019-03-15T03:19:01.360Z,1.70
2019-03-15T03:21:28.817Z,2.00
2019-03-15T03:23:57.336Z,1.52
2019-03-15T03:26:24.724Z,1.52
2019-03-15T03:28:52.056Z,1.30
2019-03-15T03:31:20.434Z,1.00
2019-03-15T03:33:47.480Z,1.27
2019-03-15T03:36:14.521Z,0.62
2019-03-15T03:38:41.163Z,0.75
2019-03-15T03:41:08.229Z,1.37
2019-03-15T03:43:35.645Z,0.90
2019-03-15T03:46:04.470Z,0.75
2019-03-15T03:48:31.712Z,1.15
2019-03-15T03:51:00.242Z,0.90
2019-03-15T03:53:27.772Z,1.10
2019-03-15T03:55:54.891Z,0.70
2019-03-15T03:58:22.450Z,1.10
2019-03-15T04:00:49.434Z,0.80
2019-03-15T04:03:17.863Z,0.88
2019-03-15T04:05:45.850Z,1.90
2019-03-15T04:08:14.530Z,1.57
2019-03-15T04:10:41.173Z,1.40
2019-03-15T04:13:08.784Z,1.30
2019-03-15T04:15:40.486Z,1.70
2019-03-15T04:18:07.216Z,1.30
2019-03-15T04:20:33.863Z,1.40
2019-03-15T04:23:02.449Z,1.75
2019-03-15T04:25:29.510Z,2.00
2019-03-15T04:27:58.139Z,1.80
2019-03-15T04:30:31.070Z,1.40
2019-03-15T04:33:05.207Z,1.30
2019-03-15T04:35:32.420Z,1.30
2019-03-15T04:37:59.403Z,1.85
2019-03-15T04:40:26.320Z,2.70
2019-03-15T04:42:53.083Z,1.40
2019-03-15T04:45:21.035Z,1.90
2019-03-15T04:47:47.693Z,1.50
2019-03-15T04:50:14.414Z,2.10
2019-03-15T04:52:41.384Z,1.37
2019-03-15T04:55:08.007Z,1.87
2019-03-15T04:57:35.083Z,2.40
2019-03-15T05:00:01.783Z,3.40
2019-03-15T05:02:28.567Z,1.67
2019-03-15T05:04:55.343Z,1.52
2019-03-15T05:07:24.471Z,3.65
2019-03-15T05:09:51.614Z,1.72
2019-03-15T05:12:18.306Z,1.50
2019-03-15T05:14:45.610Z,1.90
2019-03-15T05:17:12.966Z,1.80
2019-03-15T05:19:39.990Z,1.10
2019-03-15T05:22:06.703Z,1.50
2019-03-15T05:24:34.571Z,2.95
2019-03-15T05:27:02.755Z,2.12
2019-03-15T05:29:29.891Z,2.15
2019-03-15T05:31:56.894Z,1.92
2019-03-15T05:34:24.344Z,3.20
2019-03-15T05:36:51.800Z,2.80
2019-03-15T05:39:18.910Z,3.42
2019-03-15T05:41:46.299Z,2.65
2019-03-15T05:44:13.315Z,2.60
2019-03-15T05:46:40.808Z,3.17
2019-03-15T05:49:07.878Z,2.95
2019-03-15T05:51:34.562Z,2.90
2019-03-15T05:54:01.271Z,2.70
2019-03-15T05:56:29.095Z,3.63
2019-03-15T05:58:55.839Z,2.97
2019-03-15T06:01:24.199Z,3.50
2019-03-15T06:03:51.252Z,3.17
2019-03-15T06:06:18.193Z,4.30
2019-03-15T06:08:46.159Z,3.53
2019-03-15T06:11:14.131Z,4.77
2019-03-15T06:13:41.692Z,4.33
2019-03-15T06:16:08.303Z,5.13
2019-03-15T06:18:35.683Z,3.83
2019-03-15T06:21:02.406Z,4.80
2019-03-15T06:23:29.984Z,5.03
2019-03-15T06:25:56.601Z,3.80
2019-03-15T06:28:23.872Z,5.63
2019-03-15T06:30:50.811Z,8.80
2019-03-15T06:33:17.706Z,5.17
2019-03-15T06:35:47.775Z,5.43
2019-03-15T06:38:14.819Z,5.90
2019-03-15T06:40:42.211Z,4.97
2019-03-15T06:43:08.814Z,5.77
2019-03-15T06:45:35.539Z,5.80
2019-03-15T06:48:03.563Z,4.23
2019-03-15T06:50:30.216Z,5.30
2019-03-15T06:52:57.912Z,4.40
2019-03-15T06:55:25.486Z,4.43
2019-03-15T06:57:52.358Z,5.97
2019-03-15T07:00:19.080Z,6.27
2019-03-15T07:02:51.086Z,4.90
2019-03-15T07:05:17.707Z,6.00
2019-03-15T07:07:45.155Z,7.43
2019-03-15T07:10:12.391Z,6.10
2019-03-15T07:12:41.148Z,6.30
2019-03-15T07:15:07.890Z,5.60
2019-03-15T07:17:34.539Z,4.53
2019-03-15T07:20:01.170Z,6.10
2019-03-15T07:22:27.874Z,5.70
2019-03-15T07:24:54.525Z,5.57
2019-03-15T07:27:21.946Z,6.23
2019-03-15T07:29:48.747Z,6.70
2019-03-15T07:32:15.459Z,6.40
2019-03-15T07:34:42.067Z,6.70
2019-03-15T07:37:08.675Z,6.77
2019-03-15T07:39:35.455Z,5.97
2019-03-15T07:42:03.399Z,6.23
2019-03-15T07:44:30.027Z,7.60
2019-03-15T07:46:58.725Z,7.70
2019-03-15T07:49:25.343Z,6.97
2019-03-15T07:51:52.074Z,7.00
2019-03-15T07:54:21.270Z,5.20
2019-03-15T07:56:49.239Z,7.67
2019-03-15T07:59:16.601Z,6.27
2019-03-15T08:01:44.815Z,8.87
2019-03-15T08:04:17.186Z,5.97
2019-03-15T08:06:42.035Z,5.17
2019-03-15T08:09:09.503Z,7.03
2019-03-15T08:11:36.120Z,6.10
2019-03-15T08:14:03.773Z,4.60
2019-03-15T08:16:30.441Z,5.23
2019-03-15T08:18:57.038Z,6.20
2019-03-15T08:21:23.663Z,4.50
2019-03-15T08:23:50.302Z,5.03
2019-03-15T08:26:17.003Z,9.03
2019-03-15T08:28:44.822Z,7.57
2019-03-15T08:31:11.446Z,6.07
2019-03-15T08:33:39.159Z,5.90
2019-03-15T08:36:05.775Z,6.73
2019-03-15T08:38:42.428Z,6.47
2019-03-15T08:41:00.927Z,6.23
2019-03-15T08:43:27.701Z,5.27
2019-03-15T08:45:55.110Z,6.07
2019-03-15T08:48:22.146Z,5.63
2019-03-15T08:50:48.775Z,5.60
2019-03-15T08:53:15.542Z,6.67
2019-03-15T08:55:42.493Z,5.80
2019-03-15T08:58:13.840Z,5.73
2019-03-15T09:00:38.155Z,5.00
2019-03-15T09:03:05.171Z,6.30
2019-03-15T09:05:32.407Z,5.47
2019-03-15T09:07:59.377Z,5.70
2019-03-15T09:10:26.705Z,5.90
2019-03-15T09:12:53.319Z,6.70
2019-03-15T09:15:20.968Z,7.57
2019-03-15T09:17:48.973Z,6.80
2019-03-15T09:20:15.958Z,5.90
2019-03-15T09:22:43.991Z,7.43
2019-03-15T09:25:19.093Z,7.20
2019-03-15T09:27:45.407Z,6.10
2019-03-15T09:30:23.320Z,6.93
2019-03-15T09:32:46.823Z,7.90
2019-03-15T09:35:13.431Z,6.83
2019-03-15T09:37:40.399Z,7.50
2019-03-15T09:40:08.253Z,6.63
2019-03-15T09:42:35.461Z,7.50
2019-03-15T09:45:02.459Z,8.43
2019-03-15T09:47:29.516Z,7.07
2019-03-15T09:49:56.123Z,7.70
2019-03-15T09:52:22.875Z,7.17
2019-03-15T09:54:49.495Z,8.23
2019-03-15T09:57:17.217Z,7.00
2019-03-15T09:59:50.607Z,6.73
2019-03-15T10:02:29.620Z,8.33
2019-03-15T10:04:47.043Z,7.97
2019-03-15T10:07:14.110Z,7.50
2019-03-15T10:09:46.069Z,8.13
2019-03-15T10:12:09.952Z,8.40
2019-03-15T10:14:36.615Z,9.60
2019-03-15T10:17:03.226Z,9.00
2019-03-15T10:19:30.033Z,9.90
2019-03-15T10:21:57.104Z,11.43
2019-03-15T10:24:24.327Z,10.80
2019-03-15T10:26:51.382Z,8.70
2019-03-15T10:29:19.633Z,12.43
2019-03-15T10:31:48.431Z,8.80
2019-03-15T10:34:17.155Z,8.27
2019-03-15T10:36:43.921Z,8.27
2019-03-15T10:39:10.531Z,9.37
2019-03-15T10:41:38.394Z,7.70
2019-03-15T10:44:05.480Z,8.10
2019-03-15T10:46:32.099Z,8.70
2019-03-15T10:48:58.727Z,8.17
2019-03-15T10:51:25.798Z,8.23
2019-03-15T10:53:55.054Z,7.60
2019-03-15T10:56:21.244Z,7.70
2019-03-15T10:58:47.995Z,7.40
2019-03-15T11:01:14.619Z,7.13
2019-03-15T11:03:41.612Z,6.60
2019-03-15T11:06:09.420Z,8.53
2019-03-15T11:08:36.407Z,8.47
2019-03-15T11:11:03.051Z,7.40
2019-03-15T11:13:29.993Z,6.80
2019-03-15T11:15:56.716Z,7.53
2019-03-15T11:18:24.595Z,11.00
2019-03-15T11:20:51.575Z,9.27
2019-03-15T11:23:18.190Z,7.73
2019-03-15T11:25:46.351Z,8.77
2019-03-15T11:28:12.986Z,7.57
2019-03-15T11:30:40.245Z,8.90
2019-03-15T11:33:06.932Z,7.30
2019-03-15T11:35:33.567Z,6.63
2019-03-15T11:38:00.615Z,6.93
2019-03-15T11:40:27.245Z,5.87
2019-03-15T11:42:54.143Z,6.80
2019-03-15T11:45:21.399Z,6.80
2019-03-15T11:48:02.690Z,7.07
2019-03-15T11:50:20.107Z,7.07
2019-03-15T11:52:48.273Z,7.07
2019-03-15T11:55:14.904Z,6.07
2019-03-15T11:57:41.858Z,6.60
2019-03-15T12:00:11.280Z,7.03
2019-03-15T12:02:39.362Z,7.93
2019-03-15T12:05:06.378Z,8.83
2019-03-15T12:07:33.485Z,9.20
2019-03-15T12:10:00.381Z,9.37
2019-03-15T12:12:28.954Z,8.53
2019-03-15T12:14:56.642Z,9.20
2019-03-15T12:17:23.255Z,8.03
2019-03-15T12:19:50.403Z,10.30
2019-03-15T12:22:18.052Z,10.57
2019-03-15T12:24:44.675Z,10.83
2019-03-15T12:27:12.319Z,9.83
2019-03-15T12:29:39.200Z,9.67
2019-03-15T12:32:05.821Z,10.83
2019-03-15T12:34:32.806Z,8.70
2019-03-15T12:36:59.731Z,10.87
2019-03-15T12:39:26.679Z,8.80
2019-03-15T12:41:54.115Z,8.13
2019-03-15T12:44:20.729Z,8.07
2019-03-15T12:46:47.348Z,10.30
2019-03-15T12:49:14.588Z,7.70
2019-03-15T12:51:42.665Z,7.57
2019-03-15T12:54:09.982Z,6.70
2019-03-15T12:56:37.950Z,5.93
2019-03-15T12:59:05.203Z,6.90
2019-03-15T13:01:32.458Z,6.40
2019-03-15T13:03:59.550Z,5.40
2019-03-15T13:06:26.459Z,5.00
2019-03-15T13:08:53.075Z,3.93
2019-03-15T13:11:19.722Z,3.30
2019-03-15T13:13:46.695Z,3.43
2019-03-15T13:16:14.339Z,3.20
2019-03-15T13:18:41.127Z,2.40
2019-03-15T13:21:08.120Z,3.00
2019-03-15T13:23:34.848Z,2.70
2019-03-15T13:26:01.855Z,3.83
2019-03-15T13:28:29.559Z,3.30
2019-03-15T13:30:56.268Z,3.67
2019-03-15T13:33:23.016Z,3.20
2019-03-15T13:35:49.695Z,3.33
2019-03-15T13:38:16.322Z,3.27
2019-03-15T13:40:42.965Z,4.80
2019-03-15T13:43:09.586Z,3.10
2019-03-15T13:45:37.435Z,3.70
2019-03-15T13:48:04.707Z,3.13
2019-03-15T13:50:31.319Z,3.90
2019-03-15T13:52:57.927Z,6.63
2019-03-15T13:55:25.018Z,3.33
2019-03-15T13:57:52.597Z,4.47
2019-03-15T14:00:20.568Z,4.17
2019-03-15T14:02:48.356Z,5.10
2019-03-15T14:05:15.483Z,4.53
2019-03-15T14:07:42.119Z,4.87
2019-03-15T14:10:10.085Z,4.72
2019-03-15T14:12:37.026Z,4.63
2019-03-15T14:15:05.210Z,4.57
2019-03-15T14:17:32.253Z,4.03
2019-03-15T14:19:59.602Z,3.23
2019-03-15T14:22:26.558Z,5.60
2019-03-15T14:24:53.199Z,5.37
2019-03-15T14:27:27.613Z,4.43
2019-03-15T14:29:49.023Z,5.00
2019-03-15T14:32:16.940Z,4.50
2019-03-15T14:34:44.247Z,5.33
2019-03-15T14:37:10.902Z,4.87
2019-03-15T14:39:37.810Z,3.77
2019-03-15T14:42:04.524Z,4.03
2019-03-15T14:44:31.589Z,4.37
2019-03-15T14:46:58.563Z,4.60
2019-03-15T14:49:26.121Z,5.77
2019-03-15T14:51:52.747Z,4.20
2019-03-15T14:54:20.979Z,3.70
2019-03-15T14:56:47.593Z,4.60
2019-03-15T14:59:14.207Z,3.27
2019-03-15T15:01:40.848Z,4.47
2019-03-15T15:04:07.783Z,4.20
2019-03-15T15:06:34.408Z,3.00
2019-03-15T15:09:01.431Z,3.70
2019-03-15T15:11:29.948Z,2.93
2019-03-15T15:13:56.923Z,4.83
2019-03-15T15:16:23.565Z,3.47
2019-03-15T15:18:50.177Z,4.10
2019-03-15T15:21:18.551Z,3.43
2019-03-15T15:23:45.904Z,3.77
2019-03-15T15:26:13.364Z,3.90
2019-03-15T15:28:40.819Z,4.50
2019-03-15T15:31:08.893Z,4.10
2019-03-15T15:33:36.657Z,4.57
2019-03-15T15:36:03.272Z,4.20
2019-03-15T15:38:30.382Z,4.30
2019-03-15T15:40:57.591Z,4.20
2019-03-15T15:43:24.205Z,4.90
2019-03-15T15:45:51.583Z,5.13
2019-03-15T15:48:18.831Z,4.60
2019-03-15T15:50:45.436Z,5.30
2019-03-15T15:53:12.112Z,4.50
2019-03-15T15:55:38.719Z,3.87
2019-03-15T15:58:17.318Z,3.97
2019-03-15T16:00:33.919Z,3.33
2019-03-15T16:03:00.519Z,6.50
2019-03-15T16:05:27.119Z,3.90
2019-03-15T16:07:56.654Z,5.00
2019-03-15T16:10:23.107Z,4.63
2019-03-15T16:12:49.826Z,5.50
2019-03-15T16:15:16.706Z,4.20
2019-03-15T16:17:45.379Z,5.10
2019-03-15T16:20:12.183Z,3.80
2019-03-15T16:22:39.271Z,3.50
2019-03-15T16:25:05.964Z,5.20
2019-03-15T16:27:32.683Z,3.97
2019-03-15T16:30:00.719Z,5.60
2019-03-15T16:32:27.435Z,4.30
2019-03-15T16:34:55.999Z,3.33
2019-03-15T16:37:22.655Z,4.37
2019-03-15T16:39:49.254Z,3.83
2019-03-15T16:42:16.231Z,4.87
2019-03-15T16:44:44.095Z,3.53
2019-03-15T16:47:11.042Z,4.30
2019-03-15T16:49:37.659Z,4.67
2019-03-15T16:52:04.298Z,3.83
2019-03-15T16:54:30.914Z,5.40
2019-03-15T16:56:57.899Z,4.10
2019-03-15T16:59:24.895Z,3.97
2019-03-15T17:01:54.354Z,6.87
2019-03-15T17:04:20.811Z,5.23
2019-03-15T17:06:47.559Z,3.73
2019-03-15T17:09:14.770Z,5.03
2019-03-15T17:11:41.720Z,4.23
2019-03-15T17:14:09.066Z,4.10
2019-03-15T17:16:35.952Z,5.60
2019-03-15T17:19:02.867Z,5.83
2019-03-15T17:21:30.019Z,5.77
2019-03-15T17:23:58.591Z,5.77
2019-03-15T17:26:25.564Z,4.57
2019-03-15T17:28:58.577Z,4.70
2019-03-15T17:31:20.852Z,5.63
2019-03-15T17:33:47.802Z,4.70
2019-03-15T17:36:15.159Z,4.30
2019-03-15T17:38:42.111Z,4.70
2019-03-15T17:41:09.842Z,4.73
2019-03-15T17:43:37.323Z,5.23
2019-03-15T17:46:04.055Z,5.37
2019-03-15T17:48:31.010Z,5.57
2019-03-15T17:50:57.763Z,6.50
2019-03-15T17:53:25.308Z,5.00
2019-03-15T17:55:52.563Z,3.98
2019-03-15T17:58:19.875Z,2.90
2019-03-15T18:00:47.173Z,5.97
2019-03-15T18:03:21.259Z,5.97
2019-03-15T18:05:43.204Z,4.15
2019-03-15T18:08:10.362Z,4.62
2019-03-15T18:10:38.115Z,5.22
2019-03-15T18:13:05.131Z,4.83
2019-03-15T18:15:32.138Z,4.00
2019-03-15T18:18:00.938Z,4.07
2019-03-15T18:20:28.652Z,3.67
2019-03-15T18:22:55.392Z,5.30
2019-03-15T18:25:22.045Z,5.53
2019-03-15T18:27:49.702Z,4.65
2019-03-15T18:30:16.528Z,6.97
2019-03-15T18:32:43.527Z,3.00
2019-03-15T18:35:10.244Z,2.98
2019-03-15T18:37:36.902Z,2.95
2019-03-15T18:40:05.789Z,2.33
2019-03-15T18:42:33.310Z,2.80
2019-03-15T18:44:59.914Z,3.50
2019-03-15T18:47:26.903Z,4.50
2019-03-15T18:49:54.255Z,6.83
2019-03-15T18:52:21.611Z,4.40
2019-03-15T18:54:48.810Z,4.40
2019-03-15T18:57:16.060Z,4.10
2019-03-15T18:59:42.731Z,2.83
2019-03-15T19:02:09.774Z,2.75
2019-03-15T19:04:36.439Z,2.77
2019-03-15T19:07:03.094Z,2.80
2019-03-15T19:09:30.179Z,2.70
2019-03-15T19:11:57.171Z,2.35
2019-03-15T19:14:24.527Z,2.40
2019-03-15T19:16:51.285Z,2.30
2019-03-15T19:19:18.633Z,1.50
2019-03-15T19:21:45.667Z,2.75
2019-03-15T19:24:12.334Z,2.47
2019-03-15T19:26:40.068Z,1.82
2019-03-15T19:29:07.014Z,1.92
2019-03-15T19:31:34.303Z,2.05
2019-03-15T19:34:01.316Z,2.02
2019-03-15T19:36:28.757Z,1.57
2019-03-15T19:38:56.349Z,2.95
2019-03-15T19:41:25.150Z,2.08
2019-03-15T19:43:52.260Z,1.87
2019-03-15T19:46:19.323Z,2.02
2019-03-15T19:48:48.651Z,1.87
2019-03-15T19:51:18.430Z,1.98
2019-03-15T19:53:46.712Z,3.45
2019-03-15T19:56:13.611Z,1.62
2019-03-15T19:58:42.060Z,2.30
2019-03-15T20:01:09.176Z,2.70
2019-03-15T20:03:44.099Z,2.60
2019-03-15T20:06:08.423Z,2.67
2019-03-15T20:08:37.398Z,3.45
2019-03-15T20:11:04.491Z,2.50
2019-03-15T20:13:31.834Z,3.25
2019-03-15T20:15:59.572Z,3.22
2019-03-15T20:18:28.236Z,2.87
2019-03-15T20:20:55.434Z,4.35
2019-03-15T20:23:23.499Z,3.65
2019-03-15T20:25:51.068Z,3.75
2019-03-15T20:28:19.438Z,3.67
2019-03-15T20:30:52.294Z,3.30
2019-03-15T20:33:17.128Z,2.58
2019-03-15T20:35:43.977Z,3.50
2019-03-15T20:38:11.546Z,2.90
2019-03-15T20:40:40.498Z,2.95
2019-03-15T20:43:07.910Z,1.80
2019-03-15T20:45:36.139Z,2.47
2019-03-15T20:48:03.493Z,3.22
2019-03-15T20:50:30.745Z,1.70
2019-03-15T20:53:07.836Z,2.10
2019-03-15T20:55:29.047Z,2.87
2019-03-15T20:57:58.739Z,3.12
2019-03-15T21:00:35.577Z,3.22
2019-03-15T21:02:56.405Z,2.83
2019-03-15T21:05:36.063Z,2.58
2019-03-15T21:08:02.754Z,3.17
2019-03-15T21:10:29.951Z,2.83
2019-03-15T21:12:57.205Z,4.20
2019-03-15T21:15:24.876Z,3.30
2019-03-15T21:17:51.637Z,4.25
2019-03-15T21:20:18.481Z,3.25
2019-03-15T21:22:45.328Z,4.28
2019-03-15T21:25:12.615Z,3.52
2019-03-15T21:27:52.562Z,2.52
2019-03-15T21:30:09.993Z,3.40
2019-03-15T21:32:39.383Z,4.00
2019-03-15T21:35:06.531Z,2.22
2019-03-15T21:37:35.017Z,1.70
2019-03-15T21:40:03.089Z,3.37
2019-03-15T21:42:29.819Z,1.85
2019-03-15T21:44:56.455Z,2.60
2019-03-15T21:47:23.683Z,2.60
2019-03-15T21:49:50.655Z,3.00
2019-03-15T21:52:17.286Z,3.25
2019-03-15T21:54:44.363Z,3.05
2019-03-15T21:57:11.711Z,2.70
2019-03-15T21:59:39.191Z,4.70
2019-03-15T22:02:05.971Z,4.35
2019-03-15T22:04:33.052Z,3.22
2019-03-15T22:07:00.499Z,4.50
2019-03-15T22:09:27.624Z,4.65
2019-03-15T22:11:55.212Z,7.00
2019-03-15T22:14:21.863Z,3.75
2019-03-15T22:16:48.595Z,4.42
2019-03-15T22:19:15.940Z,5.00
2019-03-15T22:21:43.195Z,5.78
2019-03-15T22:24:09.832Z,6.37
2019-03-15T22:26:37.391Z,5.17
2019-03-15T22:29:04.019Z,6.90
2019-03-15T22:31:31.282Z,5.60
2019-03-15T22:33:58.228Z,7.67
2019-03-15T22:36:25.523Z,6.90
2019-03-15T22:38:52.429Z,5.75
2019-03-15T22:41:19.675Z,5.80
2019-03-15T22:43:47.545Z,7.15
2019-03-15T22:46:14.159Z,4.85
2019-03-15T22:48:40.823Z,4.87
2019-03-15T22:51:07.591Z,3.35
2019-03-15T22:53:34.235Z,5.47
2019-03-15T22:56:01.860Z,4.22
2019-03-15T22:58:29.088Z,4.70
2019-03-15T23:00:55.725Z,5.08
2019-03-15T23:03:23.136Z,5.12
2019-03-15T23:05:50.167Z,7.95
2019-03-15T23:08:17.399Z,4.72
2019-03-15T23:10:46.985Z,5.55
2019-03-15T23:13:12.690Z,7.53
2019-03-15T23:15:39.308Z,5.30
2019-03-15T23:18:05.936Z,8.83
2019-03-15T23:20:33.711Z,5.58
2019-03-15T23:23:01.538Z,6.67
2019-03-15T23:25:28.647Z,5.20
2019-03-15T23:27:55.644Z,6.58
2019-03-15T23:30:22.570Z,5.00
2019-03-15T23:32:49.892Z,4.92
2019-03-15T23:35:18.631Z,5.47
2019-03-15T23:37:45.550Z,5.20
2019-03-15T23:40:13.518Z,6.00
2019-03-15T23:42:40.195Z,5.87
2019-03-15T23:45:07.032Z,5.60
2019-03-15T23:47:33.970Z,5.65
2019-03-15T23:50:01.407Z,5.97
2019-03-15T23:52:28.340Z,4.17
2019-03-15T23:54:55.281Z,4.15
2019-03-15T23:57:22.751Z,5.42
2019-03-15T23:59:49.707Z,5.35
